createdAt,value
2023-01-09T00:01:10.747Z,99259.31
2023-01-09T00:03:38.241Z,99261.94
2023-01-09T00:06:06.710Z,99265.41
2023-01-09T00:08:33.995Z,99268.03
2023-01-09T00:11:01.356Z,99256.72
2023-01-09T00:13:28.687Z,99253.22
2023-01-09T00:15:56.156Z,99243.63
2023-01-09T00:18:23.410Z,99245.34
2023-01-09T00:20:50.697Z,99251.44
2023-01-09T00:23:18.289Z,99249.69
2023-01-09T00:25:45.591Z,99244.47
2023-01-09T00:28:12.892Z,99246.22
2023-01-09T00:30:40.609Z,99234.03
2023-01-09T00:33:07.992Z,99231.38
2023-01-09T00:35:35.363Z,99240.06
2023-01-09T00:38:03.611Z,99230.50
2023-01-09T00:40:31.081Z,99234.84
2023-01-09T00:42:58.642Z,99242.69
2023-01-09T00:45:29.287Z,99240.94
2023-01-09T00:48:03.804Z,99247.06
2023-01-09T00:50:33.731Z,99244.41
2023-01-09T00:53:06.543Z,99250.50
2023-01-09T00:55:37.686Z,99262.72
2023-01-09T00:58:05.992Z,99294.06
2023-01-09T01:00:33.558Z,99286.22
2023-01-09T01:03:00.912Z,99299.34
2023-01-09T01:05:46.659Z,99295.81
2023-01-09T01:08:16.266Z,99278.44
2023-01-09T01:10:44.791Z,99287.13
2023-01-09T01:13:12.763Z,99283.66
2023-01-09T01:15:42.232Z,99288.88
2023-01-09T01:18:11.524Z,99275.81
2023-01-09T01:20:45.521Z,99276.69
2023-01-09T01:23:13.088Z,99263.63
2023-01-09T01:25:41.993Z,99249.69
2023-01-09T01:28:10.631Z,99255.78
2023-01-09T01:30:41.104Z,99248.84
2023-01-09T01:33:09.184Z,99254.06
2023-01-09T01:35:36.756Z,99244.50
2023-01-09T01:38:04.457Z,99247.13
2023-01-09T01:40:31.769Z,99258.44
2023-01-09T01:42:59.154Z,99256.69
2023-01-09T01:45:28.780Z,99260.16
2023-01-09T01:48:08.416Z,99275.00
2023-01-09T01:50:35.711Z,99281.09
2023-01-09T01:53:21.640Z,99283.72
2023-01-09T01:55:51.818Z,99283.72
2023-01-09T01:58:20.342Z,99275.00
2023-01-09T02:00:48.266Z,99277.63
2023-01-09T02:03:18.867Z,99281.97
2023-01-09T02:05:46.256Z,99283.75
2023-01-09T02:08:13.678Z,99283.72
2023-01-09T02:10:41.160Z,99288.06
2023-01-09T02:13:09.460Z,99290.69
2023-01-09T02:16:04.916Z,99286.31
2023-01-09T02:18:54.044Z,99283.72
2023-01-09T02:21:33.699Z,99285.44
2023-01-09T02:24:28.995Z,99289.81
2023-01-09T02:27:23.419Z,99288.06
2023-01-09T02:30:09.185Z,99288.06
2023-01-09T02:32:57.816Z,99290.66
2023-01-09T02:35:37.456Z,99295.88
2023-01-09T02:38:40.122Z,99295.88
2023-01-09T02:41:14.271Z,99292.41
2023-01-09T02:43:41.874Z,99295.03
2023-01-09T02:46:22.987Z,99295.03
2023-01-09T02:48:52.727Z,99286.31
2023-01-09T02:51:33.561Z,99297.63
2023-01-09T02:54:21.011Z,99293.28
2023-01-09T02:56:55.658Z,99300.25
2023-01-09T02:59:30.049Z,99303.72
2023-01-09T03:02:04.616Z,99296.78
2023-01-09T03:04:56.829Z,99301.16
2023-01-09T03:08:12.514Z,99284.59
2023-01-09T03:10:59.463Z,99285.44
2023-01-09T03:13:32.735Z,99285.47
2023-01-09T03:16:06.450Z,99295.06
2023-01-09T03:18:36.388Z,99291.56
2023-01-09T03:21:06.296Z,99294.19
2023-01-09T03:23:54.012Z,99297.66
2023-01-09T03:26:21.590Z,99294.19
2023-01-09T03:28:50.257Z,99296.81
2023-01-09T03:31:18.341Z,99301.16
2023-01-09T03:33:45.663Z,99307.25
2023-01-09T03:36:14.166Z,99305.50
2023-01-09T03:38:41.471Z,99307.25
2023-01-09T03:41:08.845Z,99307.28
2023-01-09T03:43:36.647Z,99310.72
2023-01-09T03:46:04.319Z,99311.59
2023-01-09T03:48:32.038Z,99317.72
2023-01-09T03:50:59.473Z,99314.22
2023-01-09T03:53:28.801Z,99315.97
2023-01-09T03:55:57.533Z,99306.38
2023-01-09T03:58:25.871Z,99302.03
2023-01-09T04:00:59.930Z,99302.91
2023-01-09T04:03:27.443Z,99308.13
2023-01-09T04:05:55.139Z,99307.22
2023-01-09T04:08:22.750Z,99313.34
2023-01-09T04:10:50.993Z,99312.47
2023-01-09T04:13:19.354Z,99312.47
2023-01-09T04:15:46.826Z,99313.31
2023-01-09T04:18:14.721Z,99319.41
2023-01-09T04:20:42.272Z,99316.78
2023-01-09T04:23:09.491Z,99313.31
2023-01-09T04:25:36.756Z,99324.63
2023-01-09T04:28:04.257Z,99322.88
2023-01-09T04:30:31.770Z,99327.22
2023-01-09T04:32:59.044Z,99328.94
2023-01-09T04:35:26.335Z,99330.69
2023-01-09T04:37:53.687Z,99331.56
2023-01-09T04:40:21.257Z,99330.66
2023-01-09T04:42:48.762Z,99337.63
2023-01-09T04:45:17.193Z,99335.88
2023-01-09T04:47:45.248Z,99335.84
2023-01-09T04:50:13.254Z,99332.38
2023-01-09T04:52:40.996Z,99337.59
2023-01-09T04:55:09.157Z,99349.75
2023-01-09T04:57:37.197Z,99345.38
2023-01-09T05:00:09.778Z,99348.88
2023-01-09T05:02:37.631Z,99352.34
2023-01-09T05:05:07.762Z,99349.72
2023-01-09T05:07:35.763Z,99357.50
2023-01-09T05:10:04.570Z,99354.88
2023-01-09T05:12:32.041Z,99349.66
2023-01-09T05:14:59.493Z,99347.94
2023-01-09T05:17:26.820Z,99354.03
2023-01-09T05:19:54.141Z,99356.63
2023-01-09T05:22:21.867Z,99357.47
2023-01-09T05:24:49.193Z,99369.66
2023-01-09T05:27:16.624Z,99369.63
2023-01-09T05:29:43.911Z,99379.19
2023-01-09T05:32:11.184Z,99379.16
2023-01-09T05:34:38.459Z,99378.28
2023-01-09T05:37:05.825Z,99387.00
2023-01-09T05:39:33.218Z,99377.41
2023-01-09T05:42:00.533Z,99376.53
2023-01-09T05:44:27.883Z,99376.53
2023-01-09T05:46:55.227Z,99385.22
2023-01-09T05:49:22.593Z,99375.69
2023-01-09T05:51:49.839Z,99376.53
2023-01-09T05:54:17.372Z,99393.06
2023-01-09T05:56:44.694Z,99399.16
2023-01-09T05:59:12.120Z,99400.00
2023-01-09T06:01:39.462Z,99404.34
2023-01-09T06:04:07.281Z,99405.22
2023-01-09T06:06:34.615Z,99403.47
2023-01-09T06:09:06.124Z,99409.59
2023-01-09T06:11:35.956Z,99414.84
2023-01-09T06:14:03.233Z,99408.78
2023-01-09T06:16:30.611Z,99427.91
2023-01-09T06:18:58.041Z,99424.47
2023-01-09T06:21:25.411Z,99415.81
2023-01-09T06:23:52.698Z,99419.31
2023-01-09T06:26:20.184Z,99414.97
2023-01-09T06:28:47.513Z,99421.06
2023-01-09T06:31:15.005Z,99437.59
2023-01-09T06:33:42.264Z,99428.94
2023-01-09T06:36:09.711Z,99424.59
2023-01-09T06:38:37.055Z,99423.72
2023-01-09T06:41:04.608Z,99428.94
2023-01-09T06:43:32.073Z,99421.13
2023-01-09T06:45:59.454Z,99431.56
2023-01-09T06:48:26.971Z,99422.03
2023-01-09T06:50:55.000Z,99431.59
2023-01-09T06:53:22.765Z,99436.84
2023-01-09T06:55:50.342Z,99442.94
2023-01-09T06:58:18.547Z,99443.81
2023-01-09T07:00:46.184Z,99449.91
2023-01-09T07:03:19.696Z,99442.94
2023-01-09T07:05:47.582Z,99445.56
2023-01-09T07:08:15.828Z,99435.97
2023-01-09T07:10:44.310Z,99446.44
2023-01-09T07:13:11.678Z,99445.56
2023-01-09T07:15:39.228Z,99449.91
2023-01-09T07:18:06.606Z,99459.50
2023-01-09T07:20:33.866Z,99460.38
2023-01-09T07:23:01.224Z,99459.50
2023-01-09T07:25:28.559Z,99464.72
2023-01-09T07:27:56.408Z,99470.81
2023-01-09T07:30:23.785Z,99468.22
2023-01-09T07:32:51.125Z,99464.72
2023-01-09T07:35:18.459Z,99463.00
2023-01-09T07:37:46.900Z,99473.41
2023-01-09T07:40:14.243Z,99475.16
2023-01-09T07:42:41.670Z,99477.75
2023-01-09T07:45:09.333Z,99479.50
2023-01-09T07:47:36.621Z,99484.72
2023-01-09T07:50:04.114Z,99486.47
2023-01-09T07:52:31.500Z,99491.72
2023-01-09T07:54:58.853Z,99490.84
2023-01-09T07:57:26.370Z,99501.28
2023-01-09T07:59:53.740Z,99496.06
2023-01-09T08:02:21.043Z,99506.50
2023-01-09T08:04:48.692Z,99500.41
2023-01-09T08:07:16.384Z,99503.88
2023-01-09T08:09:43.677Z,99503.06
2023-01-09T08:12:10.956Z,99513.50
2023-01-09T08:14:38.298Z,99511.75
2023-01-09T08:17:05.616Z,99503.09
2023-01-09T08:19:33.002Z,99515.25
2023-01-09T08:22:00.428Z,99514.41
2023-01-09T08:24:27.700Z,99512.66
2023-01-09T08:26:55.027Z,99517.00
2023-01-09T08:29:22.331Z,99523.97
2023-01-09T08:31:49.626Z,99527.47
2023-01-09T08:34:16.940Z,99511.81
2023-01-09T08:36:44.228Z,99516.16
2023-01-09T08:39:11.549Z,99512.69
2023-01-09T08:41:57.311Z,99513.53
2023-01-09T08:44:43.161Z,99518.78
2023-01-09T08:47:10.674Z,99519.66
2023-01-09T08:49:39.290Z,99517.03
2023-01-09T08:52:07.695Z,99517.94
2023-01-09T08:54:38.969Z,99522.25
2023-01-09T08:57:07.881Z,99524.88
2023-01-09T08:59:35.234Z,99530.09
2023-01-09T09:02:02.637Z,99514.44
2023-01-09T09:04:30.089Z,99516.19
2023-01-09T09:06:57.627Z,99516.19
2023-01-09T09:09:25.837Z,99515.34
2023-01-09T09:11:53.171Z,99524.06
2023-01-09T09:14:39.188Z,99520.56
2023-01-09T09:17:06.435Z,99528.41
2023-01-09T09:19:33.812Z,99531.03
2023-01-09T09:22:01.171Z,99533.66
2023-01-09T09:24:28.707Z,99532.75
2023-01-09T09:26:55.913Z,99529.28
2023-01-09T09:29:23.095Z,99533.66
2023-01-09T09:31:50.372Z,99536.25
2023-01-09T09:34:20.156Z,99543.22
2023-01-09T09:36:47.650Z,99548.44
2023-01-09T09:39:14.994Z,99548.44
2023-01-09T09:42:13.159Z,99540.63
2023-01-09T09:44:55.609Z,99549.31
2023-01-09T09:47:32.023Z,99553.69
2023-01-09T09:50:05.414Z,99546.72
2023-01-09T09:52:51.401Z,99542.34
2023-01-09T09:55:24.039Z,99552.81
2023-01-09T09:57:52.355Z,99555.44
2023-01-09T10:00:23.421Z,99555.47
2023-01-09T10:03:06.714Z,99559.81
2023-01-09T10:05:45.625Z,99553.75
2023-01-09T10:08:43.637Z,99558.94
2023-01-09T10:11:22.235Z,99558.13
2023-01-09T10:14:06.331Z,99566.81
2023-01-09T10:16:44.883Z,99562.47
2023-01-09T10:19:12.160Z,99564.22
2023-01-09T10:21:42.243Z,99569.44
2023-01-09T10:24:21.073Z,99564.22
2023-01-09T10:26:52.123Z,99562.50
2023-01-09T10:29:31.608Z,99572.09
2023-01-09T10:32:22.090Z,99575.56
2023-01-09T10:34:58.532Z,99575.59
2023-01-09T10:37:37.371Z,99574.72
2023-01-09T10:40:16.780Z,99576.47
2023-01-09T10:42:49.206Z,99576.47
2023-01-09T10:45:25.696Z,99575.59
2023-01-09T10:48:04.944Z,99575.63
2023-01-09T10:50:36.032Z,99573.03
2023-01-09T10:53:16.630Z,99570.41
2023-01-09T10:55:47.855Z,99570.44
2023-01-09T10:58:18.860Z,99575.66
2023-01-09T11:00:47.724Z,99569.56
2023-01-09T11:03:20.666Z,99579.16
2023-01-09T11:05:57.864Z,99577.41
2023-01-09T11:08:42.839Z,99574.78
2023-01-09T11:11:12.804Z,99567.81
2023-01-09T11:13:45.458Z,99566.06
2023-01-09T11:16:14.821Z,99564.34
2023-01-09T11:18:52.594Z,99579.16
2023-01-09T11:21:26.270Z,99574.78
2023-01-09T11:23:54.563Z,99579.16
2023-01-09T11:26:27.966Z,99579.13
2023-01-09T11:29:11.249Z,99579.16
2023-01-09T11:31:41.524Z,99577.41
2023-01-09T11:34:26.929Z,99587.00
2023-01-09T11:37:10.578Z,99587.00
2023-01-09T11:39:42.675Z,99588.75
2023-01-09T11:42:20.754Z,99591.38
2023-01-09T11:44:49.046Z,99591.38
2023-01-09T11:47:41.335Z,99590.50
2023-01-09T11:50:24.799Z,99600.97
2023-01-09T11:53:17.389Z,99610.56
2023-01-09T11:55:47.338Z,99607.06
2023-01-09T11:58:21.980Z,99614.03
2023-01-09T12:00:55.010Z,99610.56
2023-01-09T12:03:44.404Z,99603.59
2023-01-09T12:06:14.791Z,99618.41
2023-01-09T12:08:55.733Z,99619.28
2023-01-09T12:11:29.260Z,99626.25
2023-01-09T12:14:06.685Z,99623.66
2023-01-09T12:16:54.363Z,99630.63
2023-01-09T12:19:32.826Z,99632.38
2023-01-09T12:22:13.017Z,99630.63
2023-01-09T12:24:43.424Z,99641.13
2023-01-09T12:27:38.887Z,99640.22
2023-01-09T12:30:29.283Z,99638.50
2023-01-09T12:33:19.391Z,99644.56
2023-01-09T12:35:53.753Z,99648.09
2023-01-09T12:38:40.899Z,99638.47
2023-01-09T12:41:36.274Z,99649.81
2023-01-09T12:44:35.956Z,99641.97
2023-01-09T12:47:03.504Z,99649.81
2023-01-09T12:49:36.023Z,99644.59
2023-01-09T12:52:10.183Z,99656.81
2023-01-09T12:54:47.737Z,99649.81
2023-01-09T12:57:21.260Z,99649.78
2023-01-09T12:59:53.482Z,99651.53
2023-01-09T13:03:03.669Z,99653.28
2023-01-09T13:05:40.308Z,99661.13
2023-01-09T13:08:22.542Z,99669.88
2023-01-09T13:10:53.693Z,99672.50
2023-01-09T13:13:47.981Z,99670.72
2023-01-09T13:16:25.318Z,99669.00
2023-01-09T13:19:00.586Z,99675.97
2023-01-09T13:21:28.273Z,99684.69
2023-01-09T13:24:10.760Z,99690.81
2023-01-09T13:26:49.280Z,99686.41
2023-01-09T13:29:33.764Z,99690.78
2023-01-09T13:32:37.898Z,99680.31
2023-01-09T13:35:05.946Z,99691.69
2023-01-09T13:37:36.946Z,99695.16
2023-01-09T13:40:26.694Z,99694.28
2023-01-09T13:43:05.450Z,99707.34
2023-01-09T13:45:37.919Z,99709.97
2023-01-09T13:48:12.028Z,99712.59
2023-01-09T13:50:41.000Z,99716.97
2023-01-09T13:53:18.658Z,99723.06
2023-01-09T13:55:58.795Z,99723.06
2023-01-09T13:58:46.870Z,99742.25
2023-01-09T14:01:36.127Z,99745.75
2023-01-09T14:04:24.493Z,99744.00
2023-01-09T14:07:16.704Z,99751.00
2023-01-09T14:09:55.126Z,99751.84
2023-01-09T14:12:23.693Z,99757.97
2023-01-09T14:14:54.193Z,99762.28
2023-01-09T14:17:31.747Z,99765.81
2023-01-09T14:20:08.710Z,99783.25
2023-01-09T14:22:45.666Z,99777.13
2023-01-09T14:25:26.527Z,99788.47
2023-01-09T14:27:54.073Z,99796.31
2023-01-09T14:30:27.215Z,99794.59
2023-01-09T14:33:19.429Z,99799.81
2023-01-09T14:36:05.212Z,99816.38
2023-01-09T14:38:37.932Z,99817.25
2023-01-09T14:41:18.903Z,99822.47
2023-01-09T14:43:51.847Z,99832.94
2023-01-09T14:46:20.945Z,99833.84
2023-01-09T14:49:03.670Z,99846.94
2023-01-09T14:51:35.782Z,99850.41
2023-01-09T14:54:15.381Z,99850.41
2023-01-09T14:56:47.720Z,99865.25
2023-01-09T14:59:16.377Z,99867.00
2023-01-09T15:01:47.808Z,99872.19
2023-01-09T15:04:36.801Z,99878.28
2023-01-09T15:07:06.155Z,99887.88
2023-01-09T15:09:47.178Z,99902.66
2023-01-09T15:12:22.863Z,99906.13
2023-01-09T15:14:53.863Z,99913.06
2023-01-09T15:17:25.752Z,99919.13
2023-01-09T15:19:54.183Z,99917.38
2023-01-09T15:22:39.841Z,99922.59
2023-01-09T15:25:38.882Z,99926.97
2023-01-09T15:28:25.635Z,99927.84
2023-01-09T15:31:18.136Z,99929.56
2023-01-09T15:33:47.516Z,99933.03
2023-01-09T15:36:22.487Z,99935.66
2023-01-09T15:38:51.358Z,99942.56
2023-01-09T15:41:43.519Z,99941.66
2023-01-09T15:44:30.848Z,99951.25
2023-01-09T15:46:59.813Z,99953.00
2023-01-09T15:49:27.414Z,99946.88
2023-01-09T15:51:56.225Z,99958.19
2023-01-09T15:54:32.813Z,99972.13
2023-01-09T15:57:25.055Z,99970.41
2023-01-09T16:00:16.492Z,99982.63
2023-01-09T16:03:04.344Z,99967.81
2023-01-09T16:05:33.441Z,99975.66
2023-01-09T16:08:02.313Z,99982.66
2023-01-09T16:10:38.731Z,99987.00
2023-01-09T16:13:07.623Z,99999.19
2023-01-09T16:15:35.399Z,100003.50
2023-01-09T16:18:17.780Z,100013.03
2023-01-09T16:20:45.731Z,100012.97
2023-01-09T16:23:23.809Z,100023.44
2023-01-09T16:26:23.721Z,100028.63
2023-01-09T16:28:53.973Z,100025.97
2023-01-09T16:31:31.114Z,100036.41
2023-01-09T16:34:04.484Z,100047.72
2023-01-09T16:36:35.007Z,100052.94
2023-01-09T16:39:04.155Z,100059.94
2023-01-09T16:41:49.904Z,100059.94
2023-01-09T16:44:19.428Z,100065.16
2023-01-09T16:46:47.072Z,100063.38
2023-01-09T16:49:33.222Z,100062.47
2023-01-09T16:52:03.151Z,100072.94
2023-01-09T16:54:31.849Z,100081.59
2023-01-09T16:57:01.264Z,100086.78
2023-01-09T16:59:28.692Z,100097.19
2023-01-09T17:01:56.211Z,100093.69
2023-01-09T17:04:26.510Z,100103.25
2023-01-09T17:06:54.097Z,100107.59
2023-01-09T17:09:27.502Z,100106.75
2023-01-09T17:11:55.012Z,100106.72
2023-01-09T17:14:28.809Z,100111.97
2023-01-09T17:16:58.207Z,100125.91
2023-01-09T17:22:12.449Z,100126.72
2023-01-09T17:24:58.428Z,100130.19
2023-01-09T17:27:55.566Z,100139.75
2023-01-09T17:30:25.657Z,100147.53
2023-01-09T17:32:53.624Z,100151.91
2023-01-09T17:35:20.952Z,100164.94
2023-01-09T17:37:48.163Z,100165.78
2023-01-09T17:40:21.120Z,100169.22
2023-01-09T17:42:48.542Z,100176.19
2023-01-09T17:45:16.006Z,100182.28
2023-01-09T17:47:43.838Z,100183.19
2023-01-09T17:50:19.644Z,100193.63
2023-01-09T17:52:48.537Z,100191.91
2023-01-09T17:55:15.963Z,100197.97
2023-01-09T17:57:44.231Z,100204.06
2023-01-09T18:00:38.870Z,100204.03
2023-01-09T18:03:07.889Z,100221.44
2023-01-09T18:05:37.864Z,100227.53
2023-01-09T18:08:09.134Z,100238.81
2023-01-09T18:10:37.786Z,100239.72
2023-01-09T18:13:05.175Z,100241.44
2023-01-09T18:15:32.792Z,100240.53
2023-01-09T18:18:01.073Z,100244.84
2023-01-09T18:20:28.453Z,100250.03
2023-01-09T18:22:56.827Z,100250.03
2023-01-09T18:25:24.166Z,100256.97
2023-01-09T18:27:51.773Z,100263.03
2023-01-09T18:30:19.284Z,100262.13
2023-01-09T18:32:46.594Z,100254.25
2023-01-09T18:35:14.211Z,100266.41
2023-01-09T18:37:41.447Z,100273.34
2023-01-09T18:40:09.431Z,100270.69
2023-01-09T18:42:36.939Z,100275.06
2023-01-09T18:45:04.591Z,100282.91
2023-01-09T18:47:33.901Z,100276.81
2023-01-09T18:50:01.198Z,100284.66
2023-01-09T18:52:28.663Z,100297.72
2023-01-09T18:54:56.149Z,100299.44
2023-01-09T18:57:23.570Z,100300.31
2023-01-09T18:59:50.928Z,100309.03
2023-01-09T19:02:24.088Z,100314.22
2023-01-09T19:04:52.252Z,100322.91
2023-01-09T19:07:20.083Z,100330.72
2023-01-09T19:09:47.765Z,100341.16
2023-01-09T19:12:15.212Z,100338.56
2023-01-09T19:14:42.857Z,100345.47
2023-01-09T19:17:19.490Z,100351.56
2023-01-09T19:19:50.163Z,100348.88
2023-01-09T19:22:19.601Z,100353.16
2023-01-09T19:24:50.336Z,100357.50
2023-01-09T19:27:18.029Z,100357.47
2023-01-09T19:29:45.366Z,100365.19
2023-01-09T19:32:14.131Z,100369.50
2023-01-09T19:34:42.316Z,100368.59
2023-01-09T19:37:13.779Z,100380.78
2023-01-09T19:39:41.315Z,100373.78
2023-01-09T19:42:08.707Z,100380.75
2023-01-09T19:44:36.623Z,100389.41
2023-01-09T19:47:12.987Z,100404.25
2023-01-09T19:49:45.174Z,100408.59
2023-01-09T19:52:15.545Z,100412.88
2023-01-09T19:54:42.988Z,100416.31
2023-01-09T19:57:10.332Z,100420.59
2023-01-09T20:02:41.136Z,100419.59
2023-01-09T20:05:09.723Z,100433.50
2023-01-09T20:07:40.167Z,100436.00
2023-01-09T20:10:07.955Z,100441.19
2023-01-09T20:12:35.593Z,100438.47
2023-01-09T20:15:03.134Z,100446.25
2023-01-09T20:17:32.657Z,100437.47
2023-01-09T20:20:09.248Z,100446.13
2023-01-09T20:22:42.245Z,100451.28
2023-01-09T20:25:18.381Z,100448.59
2023-01-09T20:27:45.940Z,100458.97
2023-01-09T20:30:13.745Z,100465.88
2023-01-09T20:32:42.387Z,100481.47
2023-01-09T20:35:09.943Z,100484.91
2023-01-09T20:37:43.790Z,100491.00
2023-01-09T20:40:11.595Z,100491.91
2023-01-09T20:42:39.278Z,100495.47
2023-01-09T20:45:07.219Z,100492.00
2023-01-09T20:47:34.603Z,100499.00
2023-01-09T20:50:02.030Z,100505.94
2023-01-09T20:52:31.505Z,100512.94
2023-01-09T20:54:59.100Z,100520.81
2023-01-09T20:57:27.369Z,100520.91
2023-01-09T20:59:55.190Z,100528.75
2023-01-09T21:02:22.638Z,100533.13
2023-01-09T21:04:49.969Z,100537.56
2023-01-09T21:07:17.629Z,100532.38
2023-01-09T21:09:46.287Z,100529.00
2023-01-09T21:12:27.735Z,100533.47
2023-01-09T21:14:55.273Z,100542.25
2023-01-09T21:17:22.745Z,100547.47
2023-01-09T21:19:52.801Z,100548.38
2023-01-09T21:22:29.778Z,100548.38
2023-01-09T21:25:03.286Z,100557.00
2023-01-09T21:27:37.340Z,100565.66
2023-01-09T21:30:07.127Z,100562.22
2023-01-09T21:32:36.745Z,100569.19
2023-01-09T21:35:06.217Z,100578.78
2023-01-09T21:37:37.956Z,100593.63
2023-01-09T21:40:08.940Z,100594.53
2023-01-09T21:42:54.753Z,100604.16
2023-01-09T21:45:44.482Z,100610.28
2023-01-09T21:48:12.255Z,100618.13
2023-01-09T21:50:41.541Z,100630.31
2023-01-09T21:53:09.296Z,100629.47
2023-01-09T21:55:36.953Z,100637.34
2023-01-09T21:58:04.824Z,100641.75
2023-01-09T22:00:32.877Z,100652.22
2023-01-09T22:03:01.418Z,100654.88
2023-01-09T22:05:28.856Z,100659.28
2023-01-09T22:07:57.470Z,100651.50
2023-01-09T22:10:28.160Z,100661.97
2023-01-09T22:13:16.986Z,100668.16
2023-01-09T22:15:46.248Z,100671.63
2023-01-09T22:18:14.065Z,100665.53
2023-01-09T22:20:41.631Z,100675.06
2023-01-09T22:23:09.839Z,100680.22
2023-01-09T22:25:38.450Z,100683.59
2023-01-09T22:28:06.045Z,100682.63
2023-01-09T22:30:33.504Z,100690.38
2023-01-09T22:33:02.763Z,100702.50
2023-01-09T22:35:33.677Z,100715.56
2023-01-09T22:38:01.270Z,100725.97
2023-01-09T22:40:28.644Z,100723.31
2023-01-09T22:42:56.817Z,100731.19
2023-01-09T22:45:24.529Z,100727.75
2023-01-09T22:47:51.994Z,100727.78
2023-01-09T22:50:19.985Z,100724.25
2023-01-09T22:52:48.572Z,100734.66
2023-01-09T22:55:16.026Z,100739.88
2023-01-09T22:57:43.800Z,100739.88
2023-01-09T23:00:12.544Z,100741.63
2023-01-09T23:02:40.000Z,100742.50
2023-01-09T23:05:07.675Z,100740.69
2023-01-09T23:07:38.792Z,100750.22
2023-01-09T23:10:07.016Z,100760.56
2023-01-09T23:12:34.451Z,100764.81
2023-01-09T23:15:02.691Z,100762.97
2023-01-09T23:17:30.563Z,100763.69
2023-01-09T23:19:57.975Z,100767.13
2023-01-09T23:22:25.942Z,100773.06
2023-01-09T23:24:53.325Z,100778.16
2023-01-09T23:27:20.583Z,100776.28
2023-01-09T23:29:48.260Z,100784.00
2023-01-09T23:32:15.727Z,100798.88
2023-01-09T23:34:43.069Z,100793.72
2023-01-09T23:37:10.441Z,100790.34
2023-01-09T23:39:38.154Z,100800.06
2023-01-09T23:42:23.989Z,100801.91
2023-01-09T23:44:51.508Z,100802.88
2023-01-09T23:47:18.799Z,100808.19
2023-01-09T23:49:46.149Z,100816.06
2023-01-09T23:52:13.517Z,100826.41
2023-01-09T23:54:40.797Z,100831.53
2023-01-09T23:57:08.446Z,100833.97
2023-01-09T23:59:35.858Z,100846.81
